sensor_id;sensor_type;location;lat;lon;timestamp;pressure;altitude;pressure_sealevel;temperature;humidity
60427;BME280;46274;47.168;27.604;2022-12-05T00:03:09;101422.00;;;-2.07;83.97
60427;BME280;46274;47.168;27.604;2022-12-05T00:09:12;101436.78;;;-2.00;83.77
60427;BME280;46274;47.168;27.604;2022-12-05T00:15:16;101439.63;;;-2.05;83.88
60427;BME280;46274;47.168;27.604;2022-12-05T00:21:24;101434.00;;;-1.97;83.23
60427;BME280;46274;47.168;27.604;2022-12-05T00:27:33;101350.47;;;-2.54;83.84
60427;BME280;46274;47.168;27.604;2022-12-05T00:33:36;101360.53;;;-2.63;84.18
60427;BME280;46274;47.168;27.604;2022-12-05T00:39:38;101410.16;;;-2.21;83.77
60427;BME280;46274;47.168;27.604;2022-12-05T00:45:40;101408.31;;;-2.18;84.14
60427;BME280;46274;47.168;27.604;2022-12-05T00:51:45;101437.81;;;-2.04;84.10
60427;BME280;46274;47.168;27.604;2022-12-05T00:57:48;101430.91;;;-2.08;83.63
60427;BME280;46274;47.168;27.604;2022-12-05T01:03:55;101429.16;;;-2.09;83.68
60427;BME280;46274;47.168;27.604;2022-12-05T01:10:07;101414.97;;;-2.08;83.72
60427;BME280;46274;47.168;27.604;2022-12-05T01:16:20;101406.25;;;-2.12;83.81
60427;BME280;46274;47.168;27.604;2022-12-05T01:22:23;101356.34;;;-2.46;84.14
60427;BME280;46274;47.168;27.604;2022-12-05T01:28:25;101388.94;;;-2.21;84.09
60427;BME280;46274;47.168;27.604;2022-12-05T01:34:30;101363.72;;;-2.32;84.15
60427;BME280;46274;47.168;27.604;2022-12-05T01:40:39;101375.09;;;-2.29;84.19
60427;BME280;46274;47.168;27.604;2022-12-05T01:46:46;101394.66;;;-2.09;83.97
60427;BME280;46274;47.168;27.604;2022-12-05T01:52:52;101296.97;;;-2.66;83.48
60427;BME280;46274;47.168;27.604;2022-12-05T01:58:55;101381.38;;;-2.09;84.15
60427;BME280;46274;47.168;27.604;2022-12-05T02:05:10;101345.22;;;-2.34;83.42
60427;BME280;46274;47.168;27.604;2022-12-05T02:11:17;101386.94;;;-2.15;83.77
60427;BME280;46274;47.168;27.604;2022-12-05T02:30:12;101381.63;;;-2.15;84.25
60427;BME280;46274;47.168;27.604;2022-12-05T02:37:26;101376.31;;;-2.15;84.11
60427;BME280;46274;47.168;27.604;2022-12-05T02:49:03;101376.31;;;-2.15;83.94
60427;BME280;46274;47.168;27.604;2022-12-05T02:55:12;101380.81;;;-2.17;84.23
60427;BME280;46274;47.168;27.604;2022-12-05T03:01:17;101385.09;;;-2.13;83.71
60427;BME280;46274;47.168;27.604;2022-12-05T03:07:20;101372.38;;;-2.27;83.89
60427;BME280;46274;47.168;27.604;2022-12-05T03:13:32;101394.66;;;-2.09;83.79
60427;BME280;46274;47.168;27.604;2022-12-05T03:20:02;101385.81;;;-2.10;83.82
60427;BME280;46274;47.168;27.604;2022-12-05T03:38:40;101387.22;;;-2.22;84.04
60427;BME280;46274;47.168;27.604;2022-12-05T03:45:10;101346.53;;;-2.44;84.46
60427;BME280;46274;47.168;27.604;2022-12-05T03:51:15;101395.94;;;-2.20;84.22
60427;BME280;46274;47.168;27.604;2022-12-05T03:57:42;101395.53;;;-2.09;84.19
60427;BME280;46274;47.168;27.604;2022-12-05T04:03:50;101392.13;;;-2.12;84.41
60427;BME280;46274;47.168;27.604;2022-12-05T04:09:57;101387.88;;;-2.16;84.58
60427;BME280;46274;47.168;27.604;2022-12-05T04:16:13;101326.53;;;-2.53;84.51
60427;BME280;46274;47.168;27.604;2022-12-05T04:22:37;101373.94;;;-2.22;84.59
60427;BME280;46274;47.168;27.604;2022-12-05T04:29:07;101251.28;;;-2.94;84.42
60427;BME280;46274;47.168;27.604;2022-12-05T04:35:23;101330.59;;;-2.44;84.84
60427;BME280;46274;47.168;27.604;2022-12-05T04:41:36;101369.31;;;-2.16;84.35
60427;BME280;46274;47.168;27.604;2022-12-05T04:47:44;101365.56;;;-2.12;83.91
60427;BME280;46274;47.168;27.604;2022-12-05T04:53:54;101367.91;;;-2.05;84.24
60427;BME280;46274;47.168;27.604;2022-12-05T04:59:57;101371.38;;;-2.03;84.43
60427;BME280;46274;47.168;27.604;2022-12-05T05:06:02;101370.25;;;-1.97;84.30
60427;BME280;46274;47.168;27.604;2022-12-05T05:12:07;101366.78;;;-1.99;84.31
60427;BME280;46274;47.168;27.604;2022-12-05T05:18:17;101372.97;;;-1.99;83.76
60427;BME280;46274;47.168;27.604;2022-12-05T05:24:20;101385.78;;;-2.08;84.74
60427;BME280;46274;47.168;27.604;2022-12-05T05:30:24;101392.63;;;-2.03;84.17
60427;BME280;46274;47.168;27.604;2022-12-05T05:36:27;101369.03;;;-2.10;84.09
60427;BME280;46274;47.168;27.604;2022-12-05T05:42:32;101278.63;;;-2.72;84.26
60427;BME280;46274;47.168;27.604;2022-12-05T05:48:36;101343.16;;;-2.27;84.30
60427;BME280;46274;47.168;27.604;2022-12-05T05:54:39;101346.56;;;-2.46;84.41
60427;BME280;46274;47.168;27.604;2022-12-05T06:00:41;101393.88;;;-2.11;84.16
60427;BME280;46274;47.168;27.604;2022-12-05T06:06:51;101408.72;;;-2.07;84.18
60427;BME280;46274;47.168;27.604;2022-12-05T06:12:53;101400.75;;;-2.07;84.34
60427;BME280;46274;47.168;27.604;2022-12-05T06:18:56;101372.00;;;-2.18;84.48
60427;BME280;46274;47.168;27.604;2022-12-05T06:25:03;101338.28;;;-2.38;83.92
60427;BME280;46274;47.168;27.604;2022-12-05T06:31:14;101410.03;;;-1.95;83.69
60427;BME280;46274;47.168;27.604;2022-12-05T06:37:16;101392.16;;;-1.92;83.42
60427;BME280;46274;47.168;27.604;2022-12-05T06:43:19;101407.28;;;-1.94;83.81
60427;BME280;46274;47.168;27.604;2022-12-05T06:49:24;101412.50;;;-1.91;83.65
60427;BME280;46274;47.168;27.604;2022-12-05T06:55:37;101417.34;;;-2.01;84.23
60427;BME280;46274;47.168;27.604;2022-12-05T07:01:41;101369.53;;;-2.23;84.16
60427;BME280;46274;47.168;27.604;2022-12-05T07:07:49;101406.06;;;-2.07;84.47
60427;BME280;46274;47.168;27.604;2022-12-05T07:13:51;101368.72;;;-2.25;83.69
60427;BME280;46274;47.168;27.604;2022-12-05T07:19:55;101359.16;;;-2.29;83.99
60427;BME280;46274;47.168;27.604;2022-12-05T07:25:58;101414.50;;;-1.96;83.61
60427;BME280;46274;47.168;27.604;2022-12-05T07:32:01;101436.69;;;-1.77;83.34
60427;BME280;46274;47.168;27.604;2022-12-05T07:38:03;101423.00;;;-1.88;83.79
60427;BME280;46274;47.168;27.604;2022-12-05T07:44:06;101379.53;;;-2.07;83.44
60427;BME280;46274;47.168;27.604;2022-12-05T07:50:09;101417.03;;;-1.72;83.35
60427;BME280;46274;47.168;27.604;2022-12-05T07:56:13;101259.34;;;-2.75;83.31
60427;BME280;46274;47.168;27.604;2022-12-05T08:02:18;101444.47;;;-1.72;83.42
60427;BME280;46274;47.168;27.604;2022-12-05T08:08:21;101433.84;;;-1.72;83.42
60427;BME280;46274;47.168;27.604;2022-12-05T08:14:23;101437.41;;;-1.73;83.63
60427;BME280;46274;47.168;27.604;2022-12-05T08:20:25;101421.47;;;-1.73;83.39
60427;BME280;46274;47.168;27.604;2022-12-05T08:26:29;101406.78;;;-1.82;83.45
60427;BME280;46274;47.168;27.604;2022-12-05T08:32:31;101402.94;;;-1.74;83.54
60427;BME280;46274;47.168;27.604;2022-12-05T08:38:41;101411.47;;;-1.66;83.60
60427;BME280;46274;47.168;27.604;2022-12-05T08:44:46;101417.72;;;-1.67;83.88
60427;BME280;46274;47.168;27.604;2022-12-05T08:50:49;101407.28;;;-1.72;84.01
60427;BME280;46274;47.168;27.604;2022-12-05T08:56:52;101390.34;;;-1.69;83.55
60427;BME280;46274;47.168;27.604;2022-12-05T09:02:54;101398.50;;;-1.54;83.41
60427;BME280;46274;47.168;27.604;2022-12-05T09:09:00;101385.94;;;-1.50;83.42
60427;BME280;46274;47.168;27.604;2022-12-05T09:15:07;101377.84;;;-1.47;83.01
60427;BME280;46274;47.168;27.604;2022-12-05T09:21:12;101363.81;;;-1.50;82.99
60427;BME280;46274;47.168;27.604;2022-12-05T09:27:14;101355.66;;;-1.46;83.30
60427;BME280;46274;47.168;27.604;2022-12-05T09:33:15;101360.16;;;-1.48;83.60
60427;BME280;46274;47.168;27.604;2022-12-05T09:39:20;101246.59;;;-2.04;83.48
60427;BME280;46274;47.168;27.604;2022-12-05T09:45:34;101357.09;;;-1.39;83.32
60427;BME280;46274;47.168;27.604;2022-12-05T09:51:43;101351.94;;;-1.42;83.31
60427;BME280;46274;47.168;27.604;2022-12-05T09:57:57;101300.88;;;-1.50;82.88
60427;BME280;46274;47.168;27.604;2022-12-05T10:16:53;101313.59;;;-1.17;82.56
60427;BME280;46274;47.168;27.604;2022-12-05T10:23:04;101319.50;;;-1.11;82.33
60427;BME280;46274;47.168;27.604;2022-12-05T10:35:53;101316.03;;;-1.32;82.94
60427;BME280;46274;47.168;27.604;2022-12-05T10:41:55;101301.28;;;-1.20;83.03
60427;BME280;46274;47.168;27.604;2022-12-05T10:47:57;101292.16;;;-1.14;82.71
60427;BME280;46274;47.168;27.604;2022-12-05T10:54:01;101288.09;;;-1.21;82.56
60427;BME280;46274;47.168;27.604;2022-12-05T11:00:15;101279.66;;;-1.12;82.63
60427;BME280;46274;47.168;27.604;2022-12-05T11:06:31;101213.81;;;-1.45;82.70
60427;BME280;46274;47.168;27.604;2022-12-05T11:12:40;101270.72;;;-1.11;82.63
60427;BME280;46274;47.168;27.604;2022-12-05T11:18:44;101267.50;;;-1.18;82.89
60427;BME280;46274;47.168;27.604;2022-12-05T11:24:50;101250.31;;;-1.29;82.69
60427;BME280;46274;47.168;27.604;2022-12-05T11:37:10;101236.25;;;-1.13;81.97
60427;BME280;46274;47.168;27.604;2022-12-05T12:02:29;101230.25;;;-0.99;82.41
60427;BME280;46274;47.168;27.604;2022-12-05T12:41:27;101211.84;;;-1.03;83.59
60427;BME280;46274;47.168;27.604;2022-12-05T12:47:59;101200.13;;;-0.99;83.59
60427;BME280;46274;47.168;27.604;2022-12-05T12:54:45;101203.59;;;-0.97;83.94
60427;BME280;46274;47.168;27.604;2022-12-05T13:13:49;101201.72;;;-0.95;84.41
60427;BME280;46274;47.168;27.604;2022-12-05T13:19:52;101190.94;;;-1.11;84.86
60427;BME280;46274;47.168;27.604;2022-12-05T13:25:56;101107.97;;;-1.54;84.69
60427;BME280;46274;47.168;27.604;2022-12-05T13:32:04;101199.56;;;-1.06;84.87
60427;BME280;46274;47.168;27.604;2022-12-05T13:38:21;101194.25;;;-1.06;84.63
60427;BME280;46274;47.168;27.604;2022-12-05T13:50:58;101134.22;;;-1.48;84.40
60427;BME280;46274;47.168;27.604;2022-12-05T13:57:03;101196.56;;;-1.17;84.37
60427;BME280;46274;47.168;27.604;2022-12-05T14:09:50;101139.53;;;-1.48;84.64
60427;BME280;46274;47.168;27.604;2022-12-05T14:15:53;101210.84;;;-1.01;84.21
60427;BME280;46274;47.168;27.604;2022-12-05T14:22:02;101200.19;;;-1.01;84.23
60427;BME280;46274;47.168;27.604;2022-12-05T14:34:37;101206.63;;;-1.05;84.28
60427;BME280;46274;47.168;27.604;2022-12-05T14:40:49;101203.00;;;-1.04;83.96
60427;BME280;46274;47.168;27.604;2022-12-05T14:46:52;101208.50;;;-1.07;84.36
60427;BME280;46274;47.168;27.604;2022-12-05T14:53:14;101214.88;;;-1.11;84.58
60427;BME280;46274;47.168;27.604;2022-12-05T15:00:00;101200.03;;;-1.15;84.13
60427;BME280;46274;47.168;27.604;2022-12-05T15:06:10;101198.00;;;-1.10;84.58
60427;BME280;46274;47.168;27.604;2022-12-05T15:12:26;101182.19;;;-1.32;85.01
60427;BME280;46274;47.168;27.604;2022-12-05T15:18:30;101197.03;;;-1.26;85.32
60427;BME280;46274;47.168;27.604;2022-12-05T15:24:36;101172.44;;;-1.32;84.93
60427;BME280;46274;47.168;27.604;2022-12-05T15:30:40;101200.38;;;-1.23;85.49
60427;BME280;46274;47.168;27.604;2022-12-05T15:36:49;101192.78;;;-1.30;85.23
60427;BME280;46274;47.168;27.604;2022-12-05T15:42:54;101187.13;;;-1.42;85.53
60427;BME280;46274;47.168;27.604;2022-12-05T15:48:57;101184.47;;;-1.42;85.66
60427;BME280;46274;47.168;27.604;2022-12-05T15:55:09;101114.56;;;-1.82;85.80
60427;BME280;46274;47.168;27.604;2022-12-05T16:01:24;101190.31;;;-1.35;85.55
60427;BME280;46274;47.168;27.604;2022-12-05T16:07:29;101197.16;;;-1.48;86.58
60427;BME280;46274;47.168;27.604;2022-12-05T16:13:50;101185.97;;;-1.36;85.85
60427;BME280;46274;47.168;27.604;2022-12-05T16:20:15;101196.00;;;-1.43;86.22
60427;BME280;46274;47.168;27.604;2022-12-05T16:26:24;101141.38;;;-1.67;86.83
60427;BME280;46274;47.168;27.604;2022-12-05T16:32:26;101097.69;;;-2.00;86.96
60427;BME280;46274;47.168;27.604;2022-12-05T16:38:32;101151.19;;;-1.69;87.85
60427;BME280;46274;47.168;27.604;2022-12-05T16:50:38;101191.00;;;-1.49;88.00
60427;BME280;46274;47.168;27.604;2022-12-05T16:56:41;101178.63;;;-1.50;88.02
60427;BME280;46274;47.168;27.604;2022-12-05T17:02:45;101170.72;;;-1.51;87.48
60427;BME280;46274;47.168;27.604;2022-12-05T17:08:48;101120.09;;;-2.05;88.42
60427;BME280;46274;47.168;27.604;2022-12-05T17:14:53;101176.63;;;-1.64;88.28
60427;BME280;46274;47.168;27.604;2022-12-05T17:21:00;101186.25;;;-1.61;88.42
60427;BME280;46274;47.168;27.604;2022-12-05T17:27:05;101167.34;;;-1.74;88.01
60427;BME280;46274;47.168;27.604;2022-12-05T17:33:12;101196.72;;;-1.58;88.29
60427;BME280;46274;47.168;27.604;2022-12-05T17:39:16;101176.56;;;-1.62;87.84
60427;BME280;46274;47.168;27.604;2022-12-05T17:45:25;101194.72;;;-1.53;88.04
60427;BME280;46274;47.168;27.604;2022-12-05T17:51:28;101176.25;;;-1.75;88.38
60427;BME280;46274;47.168;27.604;2022-12-05T17:57:31;101194.50;;;-1.67;88.52
60427;BME280;46274;47.168;27.604;2022-12-05T18:03:34;101162.81;;;-1.72;87.52
60427;BME280;46274;47.168;27.604;2022-12-05T18:09:36;101175.59;;;-1.61;87.68
60427;BME280;46274;47.168;27.604;2022-12-05T18:15:39;101151.19;;;-1.69;87.81
60427;BME280;46274;47.168;27.604;2022-12-05T18:21:46;101149.69;;;-1.75;88.04
60427;BME280;46274;47.168;27.604;2022-12-05T18:27:49;101130.50;;;-1.82;88.15
60427;BME280;46274;47.168;27.604;2022-12-05T18:33:51;101142.47;;;-1.73;88.55
60427;BME280;46274;47.168;27.604;2022-12-05T18:39:54;101160.59;;;-1.81;88.66
60427;BME280;46274;47.168;27.604;2022-12-05T18:45:59;101148.53;;;-1.88;88.53
60427;BME280;46274;47.168;27.604;2022-12-05T18:52:04;101066.31;;;-2.29;88.36
60427;BME280;46274;47.168;27.604;2022-12-05T18:58:06;101168.06;;;-1.70;88.35
60427;BME280;46274;47.168;27.604;2022-12-05T19:04:10;101137.97;;;-1.90;88.58
60427;BME280;46274;47.168;27.604;2022-12-05T19:10:13;101137.66;;;-2.03;88.59
60427;BME280;46274;47.168;27.604;2022-12-05T19:16:17;101157.94;;;-1.81;88.05
60427;BME280;46274;47.168;27.604;2022-12-05T19:22:19;101123.44;;;-2.02;88.25
60427;BME280;46274;47.168;27.604;2022-12-05T19:28:21;101119.03;;;-2.01;88.35
60427;BME280;46274;47.168;27.604;2022-12-05T19:34:23;101055.00;;;-2.53;88.58
60427;BME280;46274;47.168;27.604;2022-12-05T19:40:26;101140.38;;;-2.04;88.49
60427;BME280;46274;47.168;27.604;2022-12-05T19:46:28;101134.56;;;-2.12;87.62
60427;BME280;46274;47.168;27.604;2022-12-05T19:52:30;101143.69;;;-1.99;88.25
60427;BME280;46274;47.168;27.604;2022-12-05T19:58:34;101086.81;;;-2.33;87.83
60427;BME280;46274;47.168;27.604;2022-12-05T20:04:36;101102.25;;;-2.22;88.22
60427;BME280;46274;47.168;27.604;2022-12-05T20:10:38;101110.25;;;-2.03;88.11
60427;BME280;46274;47.168;27.604;2022-12-05T20:16:39;101113.56;;;-1.98;88.28
60427;BME280;46274;47.168;27.604;2022-12-05T20:22:42;101116.72;;;-2.09;89.11
60427;BME280;46274;47.168;27.604;2022-12-05T20:28:48;101110.72;;;-1.93;88.13
60427;BME280;46274;47.168;27.604;2022-12-05T20:34:51;101110.25;;;-2.03;87.74
60427;BME280;46274;47.168;27.604;2022-12-05T20:41:00;101085.72;;;-2.08;87.34
60427;BME280;46274;47.168;27.604;2022-12-05T20:47:03;101098.13;;;-1.90;86.48
60427;BME280;46274;47.168;27.604;2022-12-05T20:53:08;101095.63;;;-1.93;86.23
60427;BME280;46274;47.168;27.604;2022-12-05T20:59:11;101090.38;;;-1.94;86.27
60427;BME280;46274;47.168;27.604;2022-12-05T21:05:14;101068.47;;;-2.00;85.75
60427;BME280;46274;47.168;27.604;2022-12-05T21:11:19;101076.09;;;-1.92;86.25
60427;BME280;46274;47.168;27.604;2022-12-05T21:17:23;101062.94;;;-1.95;85.73
60427;BME280;46274;47.168;27.604;2022-12-05T21:23:26;101040.97;;;-2.17;86.56
60427;BME280;46274;47.168;27.604;2022-12-05T21:29:35;100976.78;;;-2.45;86.01
60427;BME280;46274;47.168;27.604;2022-12-05T21:35:39;101055.13;;;-1.98;86.22
60427;BME280;46274;47.168;27.604;2022-12-05T21:41:43;101044.94;;;-2.07;86.87
60427;BME280;46274;47.168;27.604;2022-12-05T21:47:47;101047.59;;;-2.07;86.92
60427;BME280;46274;47.168;27.604;2022-12-05T21:53:50;100997.72;;;-2.38;87.36
60427;BME280;46274;47.168;27.604;2022-12-05T21:59:54;101010.50;;;-2.09;86.89
60427;BME280;46274;47.168;27.604;2022-12-05T22:06:04;101027.00;;;-2.02;87.11
60427;BME280;46274;47.168;27.604;2022-12-05T22:12:07;100963.00;;;-2.34;87.66
60427;BME280;46274;47.168;27.604;2022-12-05T22:18:09;101011.22;;;-2.05;87.29
60427;BME280;46274;47.168;27.604;2022-12-05T22:24:13;101008.06;;;-2.13;87.59
60427;BME280;46274;47.168;27.604;2022-12-05T22:30:22;100973.16;;;-2.25;87.15
60427;BME280;46274;47.168;27.604;2022-12-05T22:36:24;100914.38;;;-2.53;86.97
60427;BME280;46274;47.168;27.604;2022-12-05T22:42:27;100962.44;;;-2.22;87.33
60427;BME280;46274;47.168;27.604;2022-12-05T22:48:35;100976.91;;;-2.10;87.31
60427;BME280;46274;47.168;27.604;2022-12-05T22:54:40;100979.66;;;-2.11;87.44
60427;BME280;46274;47.168;27.604;2022-12-05T23:00:43;100830.22;;;-3.07;88.07
60427;BME280;46274;47.168;27.604;2022-12-05T23:06:47;100963.19;;;-2.20;88.41
60427;BME280;46274;47.168;27.604;2022-12-05T23:12:49;100941.47;;;-2.28;88.06
60427;BME280;46274;47.168;27.604;2022-12-05T23:18:58;100953.53;;;-2.21;88.40
60427;BME280;46274;47.168;27.604;2022-12-05T23:25:01;100949.59;;;-2.31;89.01
60427;BME280;46274;47.168;27.604;2022-12-05T23:31:07;100942.91;;;-2.21;88.79
60427;BME280;46274;47.168;27.604;2022-12-05T23:37:14;100939.56;;;-2.24;89.35
60427;BME280;46274;47.168;27.604;2022-12-05T23:43:16;100942.06;;;-2.21;89.35
60427;BME280;46274;47.168;27.604;2022-12-05T23:49:18;100925.84;;;-2.34;89.88
60427;BME280;46274;47.168;27.604;2022-12-05T23:55:21;100872.38;;;-2.63;89.36
